createdAt,value
2018-08-09T00:00:34.895Z,989.14
2018-08-09T00:01:34.982Z,989.12
2018-08-09T00:02:34.900Z,989.08
2018-08-09T00:03:34.906Z,989.07
2018-08-09T00:04:34.907Z,989.07
2018-08-09T00:05:34.915Z,989.06
2018-08-09T00:06:34.916Z,989.05
2018-08-09T00:07:34.918Z,989.08
2018-08-09T00:08:34.921Z,989.08
2018-08-09T00:09:34.926Z,989.08
2018-08-09T00:10:34.932Z,989.06
2018-08-09T00:11:34.931Z,989.06
2018-08-09T00:12:34.935Z,989.09
2018-08-09T00:13:34.938Z,989.1
2018-08-09T00:14:34.939Z,989.06
2018-08-09T00:15:34.941Z,989.07
2018-08-09T00:16:34.946Z,989.02
2018-08-09T00:17:34.949Z,989.05
2018-08-09T00:18:34.953Z,989
2018-08-09T00:19:34.959Z,988.97
2018-08-09T00:20:34.961Z,988.99
2018-08-09T00:21:34.962Z,988.99
2018-08-09T00:22:34.976Z,989
2018-08-09T00:23:34.996Z,988.99
2018-08-09T00:24:34.975Z,988.98
2018-08-09T00:25:34.977Z,988.96
2018-08-09T00:26:34.984Z,988.96
2018-08-09T00:27:34.983Z,988.94
2018-08-09T00:28:34.986Z,988.97
2018-08-09T00:29:34.988Z,988.97
2018-08-09T00:30:35.002Z,988.91
2018-08-09T00:31:35.004Z,988.89
2018-08-09T00:32:35.016Z,988.85
2018-08-09T00:33:35.007Z,988.87
2018-08-09T00:34:35.009Z,988.84
2018-08-09T00:35:35.009Z,988.82
2018-08-09T00:36:35.013Z,988.79
2018-08-09T00:37:35.014Z,988.78
2018-08-09T00:38:35.021Z,988.77
2018-08-09T00:39:35.021Z,988.72
2018-08-09T00:40:35.023Z,988.79
2018-08-09T00:41:35.041Z,988.78
2018-08-09T00:42:35.038Z,988.77
2018-08-09T00:43:35.053Z,988.76
2018-08-09T00:44:35.049Z,988.76
2018-08-09T00:45:35.051Z,988.76
2018-08-09T00:46:35.055Z,988.75
2018-08-09T00:47:35.049Z,988.76
2018-08-09T00:48:35.050Z,988.75
2018-08-09T00:49:35.054Z,988.76
2018-08-09T00:50:35.060Z,988.73
2018-08-09T00:51:35.071Z,988.72
2018-08-09T00:52:35.070Z,988.73
2018-08-09T00:53:35.069Z,988.69
2018-08-09T00:54:35.072Z,988.69
2018-08-09T00:55:35.076Z,988.69
2018-08-09T00:56:35.085Z,988.66
2018-08-09T00:57:35.082Z,988.63
2018-08-09T00:58:35.084Z,988.63
2018-08-09T00:59:35.090Z,988.65
2018-08-09T01:00:35.091Z,988.63
2018-08-09T01:01:35.104Z,988.64
2018-08-09T01:02:35.122Z,988.65
2018-08-09T01:03:35.178Z,988.63
2018-08-09T01:04:35.106Z,988.6
2018-08-09T01:05:35.108Z,988.58
2018-08-09T01:06:35.110Z,988.62
2018-08-09T01:07:35.114Z,988.55
2018-08-09T01:08:35.116Z,988.57
2018-08-09T01:09:35.120Z,988.56
2018-08-09T01:10:35.124Z,988.54
2018-08-09T01:11:35.127Z,988.53
2018-08-09T01:12:35.131Z,988.54
2018-08-09T01:13:35.133Z,988.55
2018-08-09T01:14:35.139Z,988.54
2018-08-09T01:15:35.143Z,988.51
2018-08-09T01:16:35.142Z,988.56
2018-08-09T01:17:35.151Z,988.55
2018-08-09T01:18:35.165Z,988.57
2018-08-09T01:19:35.154Z,988.54
2018-08-09T01:20:35.156Z,988.56
2018-08-09T01:21:35.160Z,988.56
2018-08-09T01:22:35.163Z,988.54
2018-08-09T01:23:35.163Z,988.57
2018-08-09T01:24:35.170Z,988.55
2018-08-09T01:25:35.174Z,988.59
2018-08-09T01:26:35.176Z,988.54
2018-08-09T01:27:35.179Z,988.53
2018-08-09T01:28:35.183Z,988.51
2018-08-09T01:29:35.185Z,988.49
2018-08-09T01:30:35.191Z,988.5
2018-08-09T01:31:35.193Z,988.48
2018-08-09T01:32:35.196Z,988.47
2018-08-09T01:33:35.200Z,988.41
2018-08-09T01:34:35.204Z,988.48
2018-08-09T01:35:35.204Z,988.45
2018-08-09T01:36:35.208Z,988.5
2018-08-09T01:37:35.211Z,988.52
2018-08-09T01:38:35.212Z,988.53
2018-08-09T01:39:35.218Z,988.44
2018-08-09T01:40:35.221Z,988.5
2018-08-09T01:41:35.226Z,988.44
2018-08-09T01:42:35.228Z,988.46
2018-08-09T01:43:35.237Z,988.45
2018-08-09T01:44:35.232Z,988.44
2018-08-09T01:45:35.238Z,988.44
2018-08-09T01:46:35.241Z,988.45
2018-08-09T01:47:35.242Z,988.44
2018-08-09T01:48:35.247Z,988.44
2018-08-09T01:49:35.249Z,988.42
2018-08-09T01:50:35.254Z,988.42
2018-08-09T01:51:35.256Z,988.49
2018-08-09T01:52:35.258Z,988.45
2018-08-09T01:53:35.262Z,988.5
2018-08-09T01:54:35.265Z,988.48
2018-08-09T01:55:35.270Z,988.48
2018-08-09T01:56:35.274Z,988.49
2018-08-09T01:57:35.276Z,988.44
2018-08-09T01:58:35.283Z,988.47
2018-08-09T01:59:35.286Z,988.44
2018-08-09T02:00:35.287Z,988.41
2018-08-09T02:01:35.290Z,988.42
2018-08-09T02:02:35.291Z,988.36
2018-08-09T02:03:36.102Z,988.4
2018-08-09T02:04:35.303Z,988.33
2018-08-09T02:05:35.301Z,988.33
2018-08-09T02:06:35.305Z,988.3
2018-08-09T02:07:35.307Z,988.3
2018-08-09T02:08:35.314Z,988.33
2018-08-09T02:09:35.317Z,988.34
2018-08-09T02:10:35.329Z,988.34
2018-08-09T02:11:35.386Z,988.37
2018-08-09T02:12:35.329Z,988.32
2018-08-09T02:13:35.329Z,988.31
2018-08-09T02:14:35.330Z,988.28
2018-08-09T02:15:35.334Z,988.23
2018-08-09T02:16:35.336Z,988.27
2018-08-09T02:17:35.341Z,988.24
2018-08-09T02:18:35.340Z,988.2
2018-08-09T02:19:35.344Z,988.19
2018-08-09T02:20:35.348Z,988.2
2018-08-09T02:21:35.350Z,988.16
2018-08-09T02:22:35.375Z,988.17
2018-08-09T02:23:35.358Z,988.16
2018-08-09T02:24:35.361Z,988.14
2018-08-09T02:25:35.364Z,988.14
2018-08-09T02:26:35.366Z,988.12
2018-08-09T02:27:35.369Z,988.09
2018-08-09T02:28:35.376Z,988.04
2018-08-09T02:29:35.376Z,988.05
2018-08-09T02:30:35.379Z,988.04
2018-08-09T02:31:35.383Z,988.02
2018-08-09T02:32:35.388Z,988.06
2018-08-09T02:33:35.387Z,988
2018-08-09T02:34:35.389Z,988
2018-08-09T02:35:35.405Z,987.96
2018-08-09T02:36:35.401Z,987.96
2018-08-09T02:37:35.410Z,987.98
2018-08-09T02:38:35.412Z,987.95
2018-08-09T02:39:35.409Z,987.97
2018-08-09T02:40:35.409Z,987.96
2018-08-09T02:41:35.414Z,987.96
2018-08-09T02:42:35.415Z,987.93
2018-08-09T02:43:35.426Z,987.96
2018-08-09T02:44:35.422Z,987.9
2018-08-09T02:45:35.423Z,987.85
2018-08-09T02:46:35.440Z,987.89
2018-08-09T02:47:35.431Z,987.9
2018-08-09T02:48:35.431Z,987.91
2018-08-09T02:49:35.433Z,987.88
2018-08-09T02:50:35.435Z,987.88
2018-08-09T02:51:35.440Z,987.94
2018-08-09T02:52:35.439Z,987.89
2018-08-09T02:53:35.444Z,987.88
2018-08-09T02:54:35.447Z,987.87
2018-08-09T02:55:35.453Z,987.87
2018-08-09T02:56:35.452Z,987.87
2018-08-09T02:57:35.454Z,987.85
2018-08-09T02:58:35.460Z,987.84
2018-08-09T02:59:35.464Z,987.82
2018-08-09T03:00:35.485Z,987.85
2018-08-09T03:01:35.478Z,987.85
2018-08-09T03:02:35.473Z,987.86
2018-08-09T03:03:35.471Z,987.88
2018-08-09T03:04:35.472Z,987.9
2018-08-09T03:05:35.490Z,987.89
2018-08-09T03:06:35.482Z,987.88
2018-08-09T03:07:35.484Z,987.9
2018-08-09T03:08:35.506Z,987.92
2018-08-09T03:09:35.489Z,987.89
2018-08-09T03:10:35.489Z,987.93
2018-08-09T03:11:35.492Z,987.91
2018-08-09T03:12:35.493Z,987.9
2018-08-09T03:13:35.498Z,987.9
2018-08-09T03:14:35.497Z,987.93
2018-08-09T03:15:35.500Z,987.9
2018-08-09T03:16:35.503Z,987.94
2018-08-09T03:17:35.506Z,987.94
2018-08-09T03:18:35.511Z,987.92
2018-08-09T03:19:35.515Z,987.91
2018-08-09T03:20:35.514Z,987.97
2018-08-09T03:21:35.514Z,987.96
2018-08-09T03:22:35.521Z,988
2018-08-09T03:23:35.524Z,988.02
2018-08-09T03:24:35.522Z,987.98
2018-08-09T03:25:35.526Z,987.98
2018-08-09T03:26:35.537Z,987.98
2018-08-09T03:27:35.542Z,987.97
2018-08-09T03:28:35.541Z,987.97
2018-08-09T03:29:35.543Z,987.95
2018-08-09T03:30:35.543Z,987.99
2018-08-09T03:31:35.549Z,988.03
2018-08-09T03:32:35.559Z,987.98
2018-08-09T03:33:35.547Z,988.02
2018-08-09T03:34:35.552Z,987.95
2018-08-09T03:35:35.555Z,987.95
2018-08-09T03:36:35.555Z,987.97
2018-08-09T03:37:35.558Z,988.03
2018-08-09T03:38:35.562Z,988.02
2018-08-09T03:39:35.562Z,988.03
2018-08-09T03:40:35.570Z,988.02
2018-08-09T03:41:35.568Z,988.02
2018-08-09T03:42:35.568Z,988.05
2018-08-09T03:43:35.574Z,988.02
2018-08-09T03:44:35.581Z,988.05
2018-08-09T03:45:35.594Z,988.1
2018-08-09T03:46:35.576Z,988.08
2018-08-09T03:47:35.596Z,988.05
2018-08-09T03:48:35.583Z,988.06
2018-08-09T03:49:35.599Z,988.03
2018-08-09T03:50:35.596Z,988
2018-08-09T03:51:35.599Z,988.02
2018-08-09T03:52:35.598Z,988
2018-08-09T03:53:35.605Z,987.98
2018-08-09T03:54:35.603Z,987.96
2018-08-09T03:55:35.737Z,987.96
2018-08-09T03:56:35.605Z,987.96
2018-08-09T03:57:35.609Z,987.97
2018-08-09T03:58:35.611Z,987.95
2018-08-09T03:59:35.634Z,987.96
2018-08-09T04:00:35.615Z,987.98
2018-08-09T04:01:35.616Z,987.98
2018-08-09T04:02:35.620Z,987.98
2018-08-09T04:03:35.623Z,987.98
2018-08-09T04:04:35.630Z,988.03
2018-08-09T04:05:35.628Z,988
2018-08-09T04:06:35.630Z,988
2018-08-09T04:07:35.638Z,987.98
2018-08-09T04:08:35.633Z,987.94
2018-08-09T04:09:35.648Z,987.95
2018-08-09T04:10:35.641Z,987.96
2018-08-09T04:11:35.658Z,987.98
2018-08-09T04:12:35.644Z,987.94
2018-08-09T04:13:35.646Z,988.01
2018-08-09T04:14:35.649Z,987.99
2018-08-09T04:15:35.649Z,987.97
2018-08-09T04:16:35.671Z,988.03
2018-08-09T04:17:35.672Z,987.99
2018-08-09T04:18:35.674Z,988.02
2018-08-09T04:19:35.675Z,988.06
2018-08-09T04:20:35.679Z,988.02
2018-08-09T04:21:35.673Z,988.03
2018-08-09T04:22:35.672Z,988.04
2018-08-09T04:23:35.690Z,988.03
2018-08-09T04:24:35.680Z,988
2018-08-09T04:25:35.695Z,987.98
2018-08-09T04:26:35.738Z,988
2018-08-09T04:27:35.682Z,987.98
2018-08-09T04:28:35.710Z,987.98
2018-08-09T04:29:35.686Z,987.99
2018-08-09T04:30:35.689Z,988.04
2018-08-09T04:31:35.693Z,988.06
2018-08-09T04:32:35.692Z,988.05
2018-08-09T04:33:35.703Z,988.09
2018-08-09T04:34:35.704Z,988.08
2018-08-09T04:35:35.703Z,988.07
2018-08-09T04:36:35.705Z,988.02
2018-08-09T04:37:35.708Z,988.05
2018-08-09T04:38:35.715Z,988.07
2018-08-09T04:39:35.715Z,988.12
2018-08-09T04:40:35.713Z,988.08
2018-08-09T04:41:35.723Z,988.11
2018-08-09T04:42:35.719Z,988.15
2018-08-09T04:43:35.728Z,988.11
2018-08-09T04:44:35.726Z,988.11
2018-08-09T04:45:35.930Z,988.09
2018-08-09T04:46:35.748Z,988.12
2018-08-09T04:47:35.745Z,988.08
2018-08-09T04:48:35.739Z,988.1
2018-08-09T04:49:36.791Z,988.11
2018-08-09T04:50:35.742Z,988.12
2018-08-09T04:51:35.752Z,988.1
2018-08-09T04:52:35.743Z,988.07
2018-08-09T04:53:35.744Z,988.09
2018-08-09T04:54:35.750Z,988.14
2018-08-09T04:55:35.750Z,988.14
2018-08-09T04:56:35.750Z,988.18
2018-08-09T04:57:35.755Z,988.2
2018-08-09T04:58:35.757Z,988.21
2018-08-09T04:59:35.758Z,988.15
2018-08-09T05:00:35.769Z,988.17
2018-08-09T05:01:35.774Z,988.2
2018-08-09T05:02:35.762Z,988.2
2018-08-09T05:03:35.768Z,988.16
2018-08-09T05:04:35.768Z,988.22
2018-08-09T05:05:35.771Z,988.23
2018-08-09T05:06:35.777Z,988.23
2018-08-09T05:07:35.772Z,988.28
2018-08-09T05:08:35.777Z,988.29
2018-08-09T05:09:35.792Z,988.3
2018-08-09T05:10:35.784Z,988.32
2018-08-09T05:11:35.784Z,988.33
2018-08-09T05:12:35.795Z,988.36
2018-08-09T05:13:35.787Z,988.35
2018-08-09T05:14:35.791Z,988.36
2018-08-09T05:15:35.793Z,988.4
2018-08-09T05:16:35.796Z,988.44
2018-08-09T05:17:35.797Z,988.43
2018-08-09T05:18:35.814Z,988.43
2018-08-09T05:19:35.816Z,988.46
2018-08-09T05:20:35.803Z,988.43
2018-08-09T05:21:35.821Z,988.47
2018-08-09T05:22:35.809Z,988.48
2018-08-09T05:23:35.811Z,988.47
2018-08-09T05:24:35.813Z,988.45
2018-08-09T05:25:35.817Z,988.47
2018-08-09T05:26:35.822Z,988.43
2018-08-09T05:27:35.821Z,988.42
2018-08-09T05:28:35.821Z,988.39
2018-08-09T05:29:35.822Z,988.4
2018-08-09T05:30:35.827Z,988.36
2018-08-09T05:31:35.828Z,988.4
2018-08-09T05:32:35.841Z,988.42
2018-08-09T05:33:35.834Z,988.39
2018-08-09T05:34:35.838Z,988.35
2018-08-09T05:35:35.844Z,988.44
2018-08-09T05:36:35.850Z,988.38
2018-08-09T05:37:35.849Z,988.43
2018-08-09T05:38:35.854Z,988.44
2018-08-09T05:39:35.859Z,988.45
2018-08-09T05:40:35.863Z,988.45
2018-08-09T05:41:35.857Z,988.49
2018-08-09T05:42:35.859Z,988.48
2018-08-09T05:43:35.861Z,988.5
2018-08-09T05:44:35.863Z,988.52
2018-08-09T05:45:35.868Z,988.49
2018-08-09T05:46:35.870Z,988.49
2018-08-09T05:47:35.870Z,988.43
2018-08-09T05:48:35.875Z,988.41
2018-08-09T05:49:35.904Z,988.36
2018-08-09T05:50:35.881Z,988.36
2018-08-09T05:51:35.887Z,988.36
2018-08-09T05:52:35.915Z,988.35
2018-08-09T05:53:35.888Z,988.33
2018-08-09T05:54:35.893Z,988.32
2018-08-09T05:55:35.900Z,988.34
2018-08-09T05:56:35.909Z,988.28
2018-08-09T05:57:35.902Z,988.32
2018-08-09T05:58:35.930Z,988.31
2018-08-09T05:59:35.910Z,988.33
2018-08-09T06:00:35.913Z,988.29
2018-08-09T06:01:35.912Z,988.27
2018-08-09T06:02:35.918Z,988.3
2018-08-09T06:03:35.928Z,988.29
2018-08-09T06:04:35.922Z,988.32
2018-08-09T06:05:35.942Z,988.38
2018-08-09T06:06:35.935Z,988.42
2018-08-09T06:07:35.935Z,988.39
2018-08-09T06:08:35.936Z,988.39
2018-08-09T06:09:35.945Z,988.42
2018-08-09T06:10:35.942Z,988.36
2018-08-09T06:11:35.947Z,988.32
2018-08-09T06:12:35.948Z,988.33
2018-08-09T06:13:36.011Z,988.44
2018-08-09T06:14:35.968Z,988.39
2018-08-09T06:15:35.970Z,988.44
2018-08-09T06:16:35.978Z,988.53
2018-08-09T06:17:35.970Z,988.49
2018-08-09T06:18:35.971Z,988.53
2018-08-09T06:19:35.979Z,988.53
2018-08-09T06:20:35.993Z,988.52
2018-08-09T06:21:35.987Z,988.5
2018-08-09T06:22:35.992Z,988.49
2018-08-09T06:23:35.994Z,988.51
2018-08-09T06:24:36.001Z,988.49
2018-08-09T06:25:36.010Z,988.49
2018-08-09T06:26:36.053Z,988.47
2018-08-09T06:27:36.019Z,988.5
2018-08-09T06:28:36.038Z,988.47
2018-08-09T06:29:36.110Z,988.45
2018-08-09T06:30:36.041Z,988.37
2018-08-09T06:31:36.039Z,988.37
2018-08-09T06:32:36.051Z,988.38
2018-08-09T06:33:36.183Z,988.41
2018-08-09T06:34:36.069Z,988.34
2018-08-09T06:35:36.069Z,988.35
2018-08-09T06:36:36.085Z,988.29
2018-08-09T06:37:36.090Z,988.3
2018-08-09T06:38:36.091Z,988.26
2018-08-09T06:39:36.107Z,988.26
2018-08-09T06:40:36.100Z,988.23
2018-08-09T06:41:36.106Z,988.21
2018-08-09T06:42:36.120Z,988.19
2018-08-09T06:43:36.124Z,988.19
2018-08-09T06:44:36.140Z,988.15
2018-08-09T06:45:36.156Z,988.14
2018-08-09T06:46:36.158Z,988.14
2018-08-09T06:47:36.200Z,988.13
2018-08-09T06:48:36.161Z,988.17
2018-08-09T06:49:36.180Z,988.15
2018-08-09T06:50:36.188Z,988.15
2018-08-09T06:51:36.191Z,988.12
2018-08-09T06:52:36.206Z,988.08
2018-08-09T06:53:36.209Z,988.09
2018-08-09T06:54:36.210Z,988.09
2018-08-09T06:55:36.237Z,988.09
2018-08-09T06:56:36.279Z,988.03
2018-08-09T06:57:36.235Z,988.05
2018-08-09T06:58:36.237Z,988.02
2018-08-09T06:59:36.263Z,987.99
2018-08-09T07:00:36.269Z,987.97
2018-08-09T07:01:36.272Z,987.95
2018-08-09T07:02:36.275Z,987.95
2018-08-09T07:03:36.288Z,987.92
2018-08-09T07:04:36.290Z,987.94
2018-08-09T07:05:36.310Z,987.96
2018-08-09T07:06:36.318Z,987.95
2018-08-09T07:07:36.317Z,987.93
2018-08-09T07:08:36.330Z,987.9
2018-08-09T07:09:36.342Z,987.94
2018-08-09T07:10:36.343Z,987.95
2018-08-09T07:11:36.348Z,987.97
2018-08-09T07:12:36.356Z,987.97
2018-08-09T07:13:36.382Z,987.96
2018-08-09T07:14:36.380Z,987.97
2018-08-09T07:15:36.419Z,987.92
2018-08-09T07:16:36.403Z,987.86
2018-08-09T07:17:36.418Z,987.82
2018-08-09T07:18:36.417Z,987.79
2018-08-09T07:19:36.441Z,987.77
2018-08-09T07:20:38.879Z,987.72
2018-08-09T07:21:36.451Z,987.72
2018-08-09T07:22:36.455Z,987.65
2018-08-09T07:23:36.484Z,987.65
2018-08-09T07:24:36.473Z,987.69
2018-08-09T07:25:36.489Z,987.66
2018-08-09T07:26:36.498Z,987.66
2018-08-09T07:27:36.516Z,987.66
2018-08-09T07:28:36.511Z,987.61
2018-08-09T07:29:36.523Z,987.59
2018-08-09T07:30:36.537Z,987.57
2018-08-09T07:31:36.557Z,987.55
2018-08-09T07:32:36.570Z,987.57
2018-08-09T07:33:36.569Z,987.57
2018-08-09T07:34:36.570Z,987.52
2018-08-09T07:35:36.566Z,987.5
2018-08-09T07:36:36.647Z,987.44
2018-08-09T07:37:36.591Z,987.42
2018-08-09T07:38:36.606Z,987.37
2018-08-09T07:39:36.756Z,987.39
2018-08-09T07:40:36.617Z,987.39
2018-08-09T07:41:36.619Z,987.33
2018-08-09T07:42:36.628Z,987.36
2018-08-09T07:43:36.642Z,987.28
2018-08-09T07:44:36.645Z,987.32
2018-08-09T07:45:36.658Z,987.32
2018-08-09T07:46:36.676Z,987.28
2018-08-09T07:47:36.674Z,987.26
2018-08-09T07:48:36.768Z,987.21
2018-08-09T07:49:36.698Z,987.19
2018-08-09T07:50:36.811Z,987.14
2018-08-09T07:51:36.706Z,987.1
2018-08-09T07:52:36.699Z,987.09
2018-08-09T07:53:36.705Z,987.08
2018-08-09T07:54:36.729Z,987.05
2018-08-09T07:55:36.736Z,987.07
2018-08-09T07:56:36.741Z,987.03
2018-08-09T07:57:36.735Z,987.01
2018-08-09T07:58:36.797Z,987.01
2018-08-09T07:59:36.777Z,987.02
2018-08-09T08:00:36.755Z,987.02
2018-08-09T08:01:36.775Z,987.05
2018-08-09T08:02:36.782Z,987.07
2018-08-09T08:03:36.787Z,987
2018-08-09T08:04:36.804Z,986.99
2018-08-09T08:05:36.833Z,987.02
2018-08-09T08:06:36.824Z,987.05
2018-08-09T08:07:36.820Z,987.04
2018-08-09T08:08:36.832Z,987.04
2018-08-09T08:09:36.829Z,987.12
2018-08-09T08:10:36.841Z,987.18
2018-08-09T08:11:36.850Z,987.13
2018-08-09T08:12:36.852Z,987.18
2018-08-09T08:13:36.863Z,987.2
2018-08-09T08:14:36.875Z,987.18
2018-08-09T08:15:36.902Z,987.13
2018-08-09T08:16:36.890Z,987.15
2018-08-09T08:17:36.893Z,987.15
2018-08-09T08:18:36.909Z,987.11
2018-08-09T08:19:36.924Z,987.13
2018-08-09T08:20:37.002Z,987.11
2018-08-09T08:21:36.932Z,987.12
2018-08-09T08:22:36.942Z,987.17
2018-08-09T08:23:36.951Z,987.13
2018-08-09T08:24:36.967Z,987.15
2018-08-09T08:25:36.966Z,987.16
2018-08-09T08:26:37.001Z,987.13
2018-08-09T08:27:37.000Z,987.19
2018-08-09T08:28:36.995Z,987.18
2018-08-09T08:29:37.005Z,987.13
2018-08-09T08:30:37.018Z,987.14
2018-08-09T08:31:37.026Z,987.1
2018-08-09T08:32:37.050Z,987.1
2018-08-09T08:33:37.052Z,987.1
2018-08-09T08:34:37.109Z,987.14
2018-08-09T08:35:37.065Z,987.14
2018-08-09T08:36:37.079Z,987.15
2018-08-09T08:37:37.083Z,987.13
2018-08-09T08:38:37.098Z,987.09
2018-08-09T08:39:37.112Z,987.17
2018-08-09T08:40:37.115Z,987.1
2018-08-09T08:41:37.212Z,987.07
2018-08-09T08:42:37.132Z,987.02
2018-08-09T08:43:37.145Z,987.07
2018-08-09T08:44:37.157Z,987.05
2018-08-09T08:45:37.173Z,987.01
2018-08-09T08:46:37.185Z,986.98
2018-08-09T08:47:37.181Z,986.95
2018-08-09T08:48:37.198Z,986.94
2018-08-09T08:49:37.205Z,986.89
2018-08-09T08:50:37.213Z,986.87
2018-08-09T08:51:37.228Z,986.87
2018-08-09T08:52:37.250Z,986.88
2018-08-09T08:53:37.300Z,986.86
2018-08-09T08:54:37.253Z,986.84
2018-08-09T08:55:37.261Z,986.86
2018-08-09T08:56:37.271Z,986.85
2018-08-09T08:57:37.284Z,986.84
2018-08-09T08:58:37.288Z,986.87
2018-08-09T08:59:37.302Z,986.83
2018-08-09T09:00:37.304Z,986.83
2018-08-09T09:01:37.318Z,986.85
2018-08-09T09:02:37.329Z,986.85
2018-08-09T09:03:37.334Z,986.8
2018-08-09T09:04:37.347Z,986.74
2018-08-09T09:05:37.349Z,986.71
2018-08-09T09:06:37.358Z,986.67
2018-08-09T09:07:37.368Z,986.67
2018-08-09T09:08:37.373Z,986.66
2018-08-09T09:09:37.383Z,986.67
2018-08-09T09:10:37.393Z,986.67
2018-08-09T09:11:37.397Z,986.64
2018-08-09T09:12:37.411Z,986.65
2018-08-09T09:13:37.426Z,986.59
2018-08-09T09:14:37.421Z,986.61
2018-08-09T09:15:37.447Z,986.58
2018-08-09T09:16:37.438Z,986.61
2018-08-09T09:17:37.443Z,986.61
2018-08-09T09:18:37.450Z,986.56
2018-08-09T09:19:37.455Z,986.59
2018-08-09T09:20:37.477Z,986.59
2018-08-09T09:21:37.470Z,986.64
2018-08-09T09:22:37.479Z,986.59
2018-08-09T09:23:37.483Z,986.56
2018-08-09T09:24:37.488Z,986.59
2018-08-09T09:25:37.496Z,986.59
2018-08-09T09:26:37.501Z,986.6
2018-08-09T09:27:37.509Z,986.59
2018-08-09T09:28:37.516Z,986.56
2018-08-09T09:29:37.524Z,986.55
2018-08-09T09:30:37.526Z,986.58
2018-08-09T09:31:37.536Z,986.57
2018-08-09T09:32:37.542Z,986.58
2018-08-09T09:33:37.549Z,986.58
2018-08-09T09:34:37.556Z,986.57
2018-08-09T09:35:37.562Z,986.6
2018-08-09T09:36:37.566Z,986.59
2018-08-09T09:37:37.573Z,986.58
2018-08-09T09:38:37.585Z,986.55
2018-08-09T09:39:37.589Z,986.59
2018-08-09T09:40:37.603Z,986.59
2018-08-09T09:41:37.601Z,986.54
2018-08-09T09:42:37.607Z,986.54
2018-08-09T09:43:37.615Z,986.52
2018-08-09T09:44:37.624Z,986.54
2018-08-09T09:45:37.627Z,986.49
2018-08-09T09:46:37.633Z,986.53
2018-08-09T09:47:37.638Z,986.57
2018-08-09T09:48:37.646Z,986.6
2018-08-09T09:49:37.669Z,986.56
2018-08-09T09:50:37.663Z,986.57
2018-08-09T09:51:37.816Z,986.55
2018-08-09T09:52:37.671Z,986.54
2018-08-09T09:53:37.677Z,986.59
2018-08-09T09:54:37.686Z,986.58
2018-08-09T09:55:37.697Z,986.5
2018-08-09T09:56:37.699Z,986.52
2018-08-09T09:57:37.706Z,986.51
2018-08-09T09:58:37.718Z,986.44
2018-08-09T09:59:37.732Z,986.44
2018-08-09T10:00:37.725Z,986.39
2018-08-09T10:01:37.771Z,986.37
2018-08-09T10:02:37.751Z,986.35
2018-08-09T10:03:37.741Z,986.39
2018-08-09T10:04:37.750Z,986.34
2018-08-09T10:05:37.757Z,986.29
2018-08-09T10:06:37.764Z,986.3
2018-08-09T10:07:37.772Z,986.21
2018-08-09T10:08:37.784Z,986.13
2018-08-09T10:09:37.783Z,986.16
2018-08-09T10:10:37.788Z,986.15
2018-08-09T10:11:37.797Z,986.15
2018-08-09T10:12:37.817Z,986.18
2018-08-09T10:13:37.814Z,986.15
2018-08-09T10:14:37.813Z,986.15
2018-08-09T10:15:37.821Z,986.14
2018-08-09T10:16:38.632Z,986.1
2018-08-09T10:17:37.831Z,986.16
2018-08-09T10:18:37.837Z,986.11
2018-08-09T10:19:37.891Z,986.11
2018-08-09T10:20:37.850Z,986.12
2018-08-09T10:21:37.859Z,986.09
2018-08-09T10:22:37.865Z,986.07
2018-08-09T10:23:37.875Z,986.06
2018-08-09T10:24:37.877Z,986.05
2018-08-09T10:25:37.884Z,986.06
2018-08-09T10:26:37.893Z,986.02
2018-08-09T10:27:37.989Z,985.97
2018-08-09T10:28:37.913Z,985.93
2018-08-09T10:29:37.920Z,985.92
2018-08-09T10:30:37.917Z,985.91
2018-08-09T10:31:37.924Z,985.9
2018-08-09T10:32:37.928Z,985.88
2018-08-09T10:33:37.938Z,985.89
2018-08-09T10:34:37.945Z,985.84
2018-08-09T10:35:37.952Z,985.85
2018-08-09T10:36:37.956Z,985.82
2018-08-09T10:37:37.971Z,985.86
2018-08-09T10:38:37.974Z,985.84
2018-08-09T10:39:37.979Z,985.85
2018-08-09T10:40:37.993Z,985.89
2018-08-09T10:41:37.987Z,985.85
2018-08-09T10:42:38.052Z,985.89
2018-08-09T10:43:38.002Z,985.9
2018-08-09T10:44:38.011Z,985.88
2018-08-09T10:45:38.021Z,985.9
2018-08-09T10:46:38.042Z,985.89
2018-08-09T10:47:38.053Z,985.92
2018-08-09T10:48:38.044Z,985.93
2018-08-09T10:49:38.043Z,985.88
2018-08-09T10:50:38.049Z,985.89
2018-08-09T10:51:38.053Z,985.86
2018-08-09T10:52:38.062Z,985.8
2018-08-09T10:53:38.066Z,985.81
2018-08-09T10:54:38.075Z,985.76
2018-08-09T10:55:38.085Z,985.71
2018-08-09T10:56:38.092Z,985.69
2018-08-09T10:57:38.094Z,985.69
2018-08-09T10:58:38.105Z,985.66
2018-08-09T10:59:38.118Z,985.62
2018-08-09T11:00:38.116Z,985.63
2018-08-09T11:01:38.125Z,985.53
2018-08-09T11:02:38.131Z,985.56
2018-08-09T11:03:38.137Z,985.51
2018-08-09T11:04:38.142Z,985.55
2018-08-09T11:05:38.155Z,985.52
2018-08-09T11:06:38.155Z,985.51
2018-08-09T11:07:38.163Z,985.49
2018-08-09T11:08:38.180Z,985.47
2018-08-09T11:09:38.180Z,985.47
2018-08-09T11:10:38.180Z,985.46
2018-08-09T11:11:38.193Z,985.42
2018-08-09T11:12:38.194Z,985.42
2018-08-09T11:13:38.203Z,985.42
2018-08-09T11:14:38.217Z,985.4
2018-08-09T11:15:38.214Z,985.39
2018-08-09T11:16:38.220Z,985.4
2018-08-09T11:17:38.229Z,985.38
2018-08-09T11:18:38.237Z,985.4
2018-08-09T11:19:38.239Z,985.47
2018-08-09T11:20:38.254Z,985.43
2018-08-09T11:21:38.257Z,985.42
2018-08-09T11:22:38.263Z,985.43
2018-08-09T11:23:38.283Z,985.35
2018-08-09T11:24:38.280Z,985.36
2018-08-09T11:25:38.283Z,985.33
2018-08-09T11:26:38.288Z,985.32
2018-08-09T11:27:38.294Z,985.35
2018-08-09T11:28:38.321Z,985.33
2018-08-09T11:29:38.318Z,985.34
2018-08-09T11:30:38.319Z,985.34
2018-08-09T11:31:38.322Z,985.4
2018-08-09T11:32:38.330Z,985.32
2018-08-09T11:33:38.335Z,985.26
2018-08-09T11:34:38.350Z,985.3
2018-08-09T11:35:38.353Z,985.29
2018-08-09T11:36:38.355Z,985.21
2018-08-09T11:37:38.362Z,985.17
2018-08-09T11:38:38.369Z,985.17
2018-08-09T11:39:38.388Z,985.24
2018-08-09T11:40:38.385Z,985.13
2018-08-09T11:41:38.389Z,985.15
2018-08-09T11:42:38.396Z,985.14
2018-08-09T11:43:38.404Z,985.16
2018-08-09T11:44:38.420Z,985.12
2018-08-09T11:45:38.418Z,985.09
2018-08-09T11:46:38.423Z,985.06
2018-08-09T11:47:38.428Z,985.05
2018-08-09T11:48:38.435Z,985.09
2018-08-09T11:49:38.445Z,985.02
2018-08-09T11:50:38.455Z,985.02
2018-08-09T11:51:38.456Z,985
2018-08-09T11:52:38.462Z,984.95
2018-08-09T11:53:38.469Z,984.95
2018-08-09T11:54:38.480Z,984.92
2018-08-09T11:55:38.482Z,984.94
2018-08-09T11:56:38.580Z,984.91
2018-08-09T11:57:38.497Z,984.83
2018-08-09T11:58:38.507Z,984.86
2018-08-09T11:59:38.513Z,984.84
2018-08-09T12:00:38.517Z,984.93
2018-08-09T12:01:38.600Z,984.93
2018-08-09T12:02:38.532Z,984.91
2018-08-09T12:03:38.538Z,984.93
2018-08-09T12:04:38.577Z,984.9
2018-08-09T12:05:38.556Z,984.95
2018-08-09T12:06:38.558Z,984.89
2018-08-09T12:07:38.566Z,984.84
2018-08-09T12:08:38.575Z,984.81
2018-08-09T12:09:38.581Z,984.82
2018-08-09T12:10:38.583Z,984.78
2018-08-09T12:11:38.595Z,984.81
2018-08-09T12:12:38.605Z,984.77
2018-08-09T12:13:38.627Z,984.8
2018-08-09T12:14:38.616Z,984.76
2018-08-09T12:15:38.621Z,984.74
2018-08-09T12:16:38.627Z,984.7
2018-08-09T12:17:38.648Z,984.68
2018-08-09T12:18:38.652Z,984.67
2018-08-09T12:19:38.649Z,984.66
2018-08-09T12:20:38.681Z,984.64
2018-08-09T12:21:38.679Z,984.67
2018-08-09T12:22:38.669Z,984.61
2018-08-09T12:23:38.675Z,984.64
2018-08-09T12:24:38.682Z,984.61
2018-08-09T12:25:38.706Z,984.58
2018-08-09T12:26:38.695Z,984.67
2018-08-09T12:27:38.713Z,984.64
2018-08-09T12:28:38.715Z,984.63
2018-08-09T12:29:38.715Z,984.62
2018-08-09T12:30:38.721Z,984.61
2018-08-09T12:31:38.746Z,984.54